sensor_id;sensor_type;location;lat;lon;timestamp;pressure;altitude;pressure_sealevel;temperature;humidity
79037;BME280;68434;59.896;30.474;2023-06-10T00:02:16;102676.91;;;13.70;42.31
79037;BME280;68434;59.896;30.474;2023-06-10T00:04:44;102690.66;;;13.68;42.08
79037;BME280;68434;59.896;30.474;2023-06-10T00:07:12;102683.69;;;13.75;41.76
79037;BME280;68434;59.896;30.474;2023-06-10T00:09:40;102679.75;;;13.68;41.86
79037;BME280;68434;59.896;30.474;2023-06-10T00:12:08;102687.19;;;13.66;41.63
79037;BME280;68434;59.896;30.474;2023-06-10T00:14:39;102687.44;;;13.63;43.09
79037;BME280;68434;59.896;30.474;2023-06-10T00:17:07;102687.69;;;13.60;41.80
79037;BME280;68434;59.896;30.474;2023-06-10T00:19:36;102694.88;;;13.61;41.43
79037;BME280;68434;59.896;30.474;2023-06-10T00:22:08;102700.19;;;13.63;41.63
79037;BME280;68434;59.896;30.474;2023-06-10T00:24:36;102699.69;;;13.58;42.62
79037;BME280;68434;59.896;30.474;2023-06-10T00:27:06;102703.66;;;13.54;42.58
79037;BME280;68434;59.896;30.474;2023-06-10T00:29:34;102702.03;;;13.51;43.33
79037;BME280;68434;59.896;30.474;2023-06-10T00:32:03;102703.19;;;13.49;43.79
79037;BME280;68434;59.896;30.474;2023-06-10T00:34:33;102703.19;;;13.49;43.63
79037;BME280;68434;59.896;30.474;2023-06-10T00:37:02;102709.50;;;13.49;42.14
79037;BME280;68434;59.896;30.474;2023-06-10T00:39:29;102709.94;;;13.54;41.61
79037;BME280;68434;59.896;30.474;2023-06-10T00:41:57;102709.81;;;13.56;42.62
79037;BME280;68434;59.896;30.474;2023-06-10T00:44:26;102719.75;;;13.57;42.11
79037;BME280;68434;59.896;30.474;2023-06-10T00:46:54;102721.44;;;13.58;41.44
79037;BME280;68434;59.896;30.474;2023-06-10T00:49:24;102719.63;;;13.58;41.66
79037;BME280;68434;59.896;30.474;2023-06-10T00:51:54;102718.88;;;13.56;41.60
79037;BME280;68434;59.896;30.474;2023-06-10T00:54:22;102726.88;;;13.58;41.37
79037;BME280;68434;59.896;30.474;2023-06-10T00:56:50;102728.75;;;13.57;40.93
79037;BME280;68434;59.896;30.474;2023-06-10T00:59:18;102732.34;;;13.58;41.46
79037;BME280;68434;59.896;30.474;2023-06-10T01:01:46;102730.63;;;13.57;41.45
79037;BME280;68434;59.896;30.474;2023-06-10T01:04:14;102745.06;;;13.57;41.23
79037;BME280;68434;59.896;30.474;2023-06-10T01:06:49;102744.22;;;13.57;41.93
79037;BME280;68434;59.896;30.474;2023-06-10T01:09:24;102749.53;;;13.58;41.25
79037;BME280;68434;59.896;30.474;2023-06-10T01:12:01;102753.09;;;13.59;41.30
79037;BME280;68434;59.896;30.474;2023-06-10T01:14:36;102744.81;;;13.60;41.52
79037;BME280;68434;59.896;30.474;2023-06-10T01:17:07;102735.06;;;13.58;41.45
79037;BME280;68434;59.896;30.474;2023-06-10T01:19:35;102748.53;;;13.59;41.82
79037;BME280;68434;59.896;30.474;2023-06-10T01:22:05;102747.66;;;13.59;41.66
79037;BME280;68434;59.896;30.474;2023-06-10T01:24:34;102747.66;;;13.59;41.43
79037;BME280;68434;59.896;30.474;2023-06-10T01:27:04;102747.66;;;13.59;41.89
79037;BME280;68434;59.896;30.474;2023-06-10T01:29:37;102756.56;;;13.61;41.87
79037;BME280;68434;59.896;30.474;2023-06-10T01:32:14;102757.44;;;13.61;41.24
79037;BME280;68434;59.896;30.474;2023-06-10T01:34:44;102747.41;;;13.62;42.09
79037;BME280;68434;59.896;30.474;2023-06-10T01:37:14;102755.56;;;13.62;41.93
79037;BME280;68434;59.896;30.474;2023-06-10T01:39:45;102759.53;;;13.58;42.42
79037;BME280;68434;59.896;30.474;2023-06-10T01:42:13;102761.63;;;13.54;41.71
79037;BME280;68434;59.896;30.474;2023-06-10T01:44:41;102768.94;;;13.54;42.40
79037;BME280;68434;59.896;30.474;2023-06-10T01:47:09;102767.31;;;13.51;42.05
79037;BME280;68434;59.896;30.474;2023-06-10T01:49:37;102768.94;;;13.54;42.35
79037;BME280;68434;59.896;30.474;2023-06-10T01:52:07;102768.31;;;13.50;42.88
79037;BME280;68434;59.896;30.474;2023-06-10T01:54:37;102772.88;;;13.50;42.63
79037;BME280;68434;59.896;30.474;2023-06-10T01:57:05;102776.84;;;13.46;43.20
79037;BME280;68434;59.896;30.474;2023-06-10T01:59:33;102785.25;;;13.43;42.75
79037;BME280;68434;59.896;30.474;2023-06-10T02:02:03;102785.38;;;13.41;43.36
79037;BME280;68434;59.896;30.474;2023-06-10T02:04:31;102786.97;;;13.44;43.61
79037;BME280;68434;59.896;30.474;2023-06-10T02:07:02;102794.16;;;13.45;43.80
79037;BME280;68434;59.896;30.474;2023-06-10T02:09:31;102793.53;;;13.41;43.64
79037;BME280;68434;59.896;30.474;2023-06-10T02:12:04;102796.25;;;13.41;43.88
79037;BME280;68434;59.896;30.474;2023-06-10T02:14:35;102803.53;;;13.41;43.32
79037;BME280;68434;59.896;30.474;2023-06-10T02:17:03;102804.53;;;13.40;43.78
79037;BME280;68434;59.896;30.474;2023-06-10T02:19:31;102803.66;;;13.39;44.09
79037;BME280;68434;59.896;30.474;2023-06-10T02:21:58;102801.94;;;13.38;43.96
79037;BME280;68434;59.896;30.474;2023-06-10T02:24:26;102812.19;;;13.35;44.33
79037;BME280;68434;59.896;30.474;2023-06-10T02:26:54;102815.78;;;13.35;44.19
79037;BME280;68434;59.896;30.474;2023-06-10T02:29:23;102815.16;;;13.32;44.25
79037;BME280;68434;59.896;30.474;2023-06-10T02:31:52;102815.63;;;13.25;44.73
79037;BME280;68434;59.896;30.474;2023-06-10T02:34:20;102816.13;;;13.19;45.07
79037;BME280;68434;59.896;30.474;2023-06-10T02:36:48;102822.69;;;13.17;45.34
79037;BME280;68434;59.896;30.474;2023-06-10T02:39:19;102825.28;;;13.18;44.91
79037;BME280;68434;59.896;30.474;2023-06-10T02:41:48;102826.03;;;13.20;45.68
79037;BME280;68434;59.896;30.474;2023-06-10T02:44:17;102824.28;;;13.19;44.81
79037;BME280;68434;59.896;30.474;2023-06-10T02:46:48;102820.72;;;13.19;45.78
79037;BME280;68434;59.896;30.474;2023-06-10T02:49:17;102826.16;;;13.19;45.20
79037;BME280;68434;59.896;30.474;2023-06-10T02:51:45;102824.28;;;13.19;46.22
79037;BME280;68434;59.896;30.474;2023-06-10T02:54:13;102837.03;;;13.19;45.46
79037;BME280;68434;59.896;30.474;2023-06-10T02:56:43;102836.03;;;13.20;45.81
79037;BME280;68434;59.896;30.474;2023-06-10T02:59:18;102839.75;;;13.19;45.61
79037;BME280;68434;59.896;30.474;2023-06-10T03:01:48;102846.25;;;13.16;46.24
79037;BME280;68434;59.896;30.474;2023-06-10T03:04:15;102843.66;;;13.15;46.22
79037;BME280;68434;59.896;30.474;2023-06-10T03:06:53;102858.25;;;13.14;47.06
79037;BME280;68434;59.896;30.474;2023-06-10T03:09:32;102861.22;;;13.11;46.37
79037;BME280;68434;59.896;30.474;2023-06-10T03:12:02;102859.25;;;13.13;46.47
79037;BME280;68434;59.896;30.474;2023-06-10T03:14:34;102859.13;;;13.14;46.41
79037;BME280;68434;59.896;30.474;2023-06-10T03:17:05;102868.25;;;13.13;46.61
79037;BME280;68434;59.896;30.474;2023-06-10T03:19:35;102865.53;;;13.13;47.54
79037;BME280;68434;59.896;30.474;2023-06-10T03:22:08;102868.47;;;13.10;47.44
79037;BME280;68434;59.896;30.474;2023-06-10T03:24:40;102861.31;;;13.09;47.62
79037;BME280;68434;59.896;30.474;2023-06-10T03:27:10;102867.41;;;13.13;47.91
79037;BME280;68434;59.896;30.474;2023-06-10T03:29:41;102866.41;;;13.14;47.26
79037;BME280;68434;59.896;30.474;2023-06-10T03:32:11;102867.88;;;13.18;47.73
79037;BME280;68434;59.896;30.474;2023-06-10T03:34:40;102873.09;;;13.21;48.11
79037;BME280;68434;59.896;30.474;2023-06-10T03:37:09;102873.19;;;13.19;47.36
79037;BME280;68434;59.896;30.474;2023-06-10T03:39:37;102867.75;;;13.19;47.64
79037;BME280;68434;59.896;30.474;2023-06-10T03:42:14;102877.56;;;13.22;48.27
79037;BME280;68434;59.896;30.474;2023-06-10T03:44:41;102880.16;;;13.23;47.50
79037;BME280;68434;59.896;30.474;2023-06-10T03:47:11;102882.63;;;13.27;47.84
79037;BME280;68434;59.896;30.474;2023-06-10T03:49:39;102886.19;;;13.27;48.46
79037;BME280;68434;59.896;30.474;2023-06-10T03:52:08;102891.63;;;13.27;48.04
79037;BME280;68434;59.896;30.474;2023-06-10T03:54:35;102891.50;;;13.28;48.07
79037;BME280;68434;59.896;30.474;2023-06-10T03:57:04;102889.53;;;13.31;48.00
79037;BME280;68434;59.896;30.474;2023-06-10T03:59:32;102900.41;;;13.31;48.81
79037;BME280;68434;59.896;30.474;2023-06-10T04:02:02;102889.31;;;13.34;48.58
79037;BME280;68434;59.896;30.474;2023-06-10T04:04:32;102894.63;;;13.35;48.16
79037;BME280;68434;59.896;30.474;2023-06-10T04:07:01;102900.69;;;13.39;48.93
79037;BME280;68434;59.896;30.474;2023-06-10T04:09:28;102903.91;;;13.44;48.72
79037;BME280;68434;59.896;30.474;2023-06-10T04:11:56;102900.81;;;13.48;48.25
79037;BME280;68434;59.896;30.474;2023-06-10T04:14:24;102897.72;;;13.53;48.09
79037;BME280;68434;59.896;30.474;2023-06-10T04:16:53;102901.19;;;13.55;48.70
79037;BME280;68434;59.896;30.474;2023-06-10T04:19:21;102905.53;;;13.57;48.38
79037;BME280;68434;59.896;30.474;2023-06-10T04:21:52;102908.88;;;13.61;48.98
79037;BME280;68434;59.896;30.474;2023-06-10T04:24:20;102910.84;;;13.59;49.54
79037;BME280;68434;59.896;30.474;2023-06-10T04:26:48;102915.06;;;13.63;48.92
79037;BME280;68434;59.896;30.474;2023-06-10T04:29:16;102913.94;;;13.65;48.68
79037;BME280;68434;59.896;30.474;2023-06-10T04:31:44;102918.91;;;13.71;48.79
79037;BME280;68434;59.896;30.474;2023-06-10T04:34:13;102911.25;;;13.76;48.73
79037;BME280;68434;59.896;30.474;2023-06-10T04:36:41;102916.06;;;13.84;48.59
79037;BME280;68434;59.896;30.474;2023-06-10T04:39:11;102914.94;;;13.86;48.82
79037;BME280;68434;59.896;30.474;2023-06-10T04:41:39;102921.63;;;13.93;48.57
79037;BME280;68434;59.896;30.474;2023-06-10T04:44:07;102914.34;;;14.05;48.28
79037;BME280;68434;59.896;30.474;2023-06-10T04:46:36;102924.09;;;14.18;48.02
79037;BME280;68434;59.896;30.474;2023-06-10T04:49:04;102915.69;;;14.21;47.93
79037;BME280;68434;59.896;30.474;2023-06-10T04:51:32;102925.56;;;14.22;47.83
79037;BME280;68434;59.896;30.474;2023-06-10T04:54:00;102926.44;;;14.23;48.03
79037;BME280;68434;59.896;30.474;2023-06-10T04:56:31;102923.50;;;14.26;48.41
79037;BME280;68434;59.896;30.474;2023-06-10T04:58:59;102923.25;;;14.29;48.12
79037;BME280;68434;59.896;30.474;2023-06-10T05:01:27;102924.59;;;14.34;47.59
79037;BME280;68434;59.896;30.474;2023-06-10T05:03:55;102926.94;;;14.39;47.20
79037;BME280;68434;59.896;30.474;2023-06-10T05:06:22;102933.84;;;14.43;46.78
79037;BME280;68434;59.896;30.474;2023-06-10T05:08:50;102931.75;;;14.46;46.70
79037;BME280;68434;59.896;30.474;2023-06-10T05:11:18;102936.06;;;14.49;46.34
79037;BME280;68434;59.896;30.474;2023-06-10T05:13:47;102938.41;;;14.53;46.14
79037;BME280;68434;59.896;30.474;2023-06-10T05:16:14;102936.44;;;14.55;46.58
79037;BME280;68434;59.896;30.474;2023-06-10T05:18:42;102934.31;;;14.59;46.10
79037;BME280;68434;59.896;30.474;2023-06-10T05:23:56;102945.41;;;14.78;45.42
79037;BME280;68434;59.896;30.474;2023-06-10T05:26:24;102943.88;;;14.85;45.36
79037;BME280;68434;59.896;30.474;2023-06-10T05:28:53;102949.19;;;14.86;45.27
79037;BME280;68434;59.896;30.474;2023-06-10T05:31:20;102948.09;;;14.89;45.09
79037;BME280;68434;59.896;30.474;2023-06-10T05:33:48;102950.56;;;14.92;44.90
79037;BME280;68434;59.896;30.474;2023-06-10T05:36:15;102953.75;;;14.97;44.87
79037;BME280;68434;59.896;30.474;2023-06-10T05:38:43;102951.78;;;14.99;44.31
79037;BME280;68434;59.896;30.474;2023-06-10T05:41:10;102951.78;;;14.99;43.77
79037;BME280;68434;59.896;30.474;2023-06-10T05:43:38;102956.09;;;15.01;43.60
79037;BME280;68434;59.896;30.474;2023-06-10T05:46:07;102962.28;;;15.03;43.53
79037;BME280;68434;59.896;30.474;2023-06-10T05:48:35;102951.13;;;15.06;43.16
79037;BME280;68434;59.896;30.474;2023-06-10T05:51:03;102962.28;;;15.03;42.89
79037;BME280;68434;59.896;30.474;2023-06-10T05:53:31;102967.72;;;15.03;42.21
79037;BME280;68434;59.896;30.474;2023-06-10T05:55:59;102966.47;;;15.07;41.63
79037;BME280;68434;59.896;30.474;2023-06-10T05:58:26;102969.94;;;15.09;41.23
79037;BME280;68434;59.896;30.474;2023-06-10T06:00:54;102978.00;;;15.11;40.98
79037;BME280;68434;59.896;30.474;2023-06-10T06:03:23;102965.81;;;15.15;40.37
79037;BME280;68434;59.896;30.474;2023-06-10T06:05:54;102973.03;;;15.16;39.81
79037;BME280;68434;59.896;30.474;2023-06-10T06:08:21;102970.28;;;15.16;39.69
79037;BME280;68434;59.896;30.474;2023-06-10T06:10:50;102965.56;;;15.18;39.74
79037;BME280;68434;59.896;30.474;2023-06-10T06:13:17;102966.91;;;15.24;39.35
79037;BME280;68434;59.896;30.474;2023-06-10T06:15:45;102968.09;;;15.31;39.29
79037;BME280;68434;59.896;30.474;2023-06-10T06:18:12;102962.13;;;15.37;39.19
79037;BME280;68434;59.896;30.474;2023-06-10T06:20:42;102967.94;;;15.43;38.95
79037;BME280;68434;59.896;30.474;2023-06-10T06:23:09;102968.06;;;15.42;38.64
79037;BME280;68434;59.896;30.474;2023-06-10T06:25:55;102966.06;;;15.64;38.00
79037;BME280;68434;59.896;30.474;2023-06-10T06:28:23;102970.03;;;15.81;37.99
79037;BME280;68434;59.896;30.474;2023-06-10T06:30:55;102966.22;;;15.93;37.49
79037;BME280;68434;59.896;30.474;2023-06-10T06:33:23;102969.97;;;15.92;37.67
79037;BME280;68434;59.896;30.474;2023-06-10T06:35:54;102974.25;;;15.85;37.13
79037;BME280;68434;59.896;30.474;2023-06-10T06:38:22;102973.66;;;15.81;37.33
79037;BME280;68434;59.896;30.474;2023-06-10T06:40:49;102972.91;;;15.79;37.43
79037;BME280;68434;59.896;30.474;2023-06-10T06:43:17;102976.03;;;15.75;37.31
79037;BME280;68434;59.896;30.474;2023-06-10T06:46:04;102980.78;;;15.73;37.64
79037;BME280;68434;59.896;30.474;2023-06-10T06:48:31;102986.53;;;15.70;37.11
79037;BME280;68434;59.896;30.474;2023-06-10T06:51:00;102977.84;;;15.65;37.02
79037;BME280;68434;59.896;30.474;2023-06-10T06:53:28;102975.25;;;15.63;37.27
79037;BME280;68434;59.896;30.474;2023-06-10T06:55:56;102983.44;;;15.63;37.12
79037;BME280;68434;59.896;30.474;2023-06-10T06:58:23;102985.44;;;15.61;37.87
79037;BME280;68434;59.896;30.474;2023-06-10T07:00:51;102991.16;;;15.58;37.45
79037;BME280;68434;59.896;30.474;2023-06-10T07:03:20;102992.28;;;15.56;36.52
79037;BME280;68434;59.896;30.474;2023-06-10T07:05:48;102997.88;;;15.54;36.05
79037;BME280;68434;59.896;30.474;2023-06-10T07:08:17;103006.34;;;15.51;36.53
79037;BME280;68434;59.896;30.474;2023-06-10T07:10:44;103005.19;;;15.54;36.74
79037;BME280;68434;59.896;30.474;2023-06-10T07:13:12;103003.94;;;15.58;36.69
79037;BME280;68434;59.896;30.474;2023-06-10T07:15:40;103004.28;;;15.64;37.09
79037;BME280;68434;59.896;30.474;2023-06-10T07:18:07;103004.63;;;15.71;37.13
79037;BME280;68434;59.896;30.474;2023-06-10T07:20:35;103003.59;;;15.72;37.38
79037;BME280;68434;59.896;30.474;2023-06-10T07:23:03;103012.81;;;15.71;37.12
79037;BME280;68434;59.896;30.474;2023-06-10T07:25:32;103003.16;;;15.67;36.62
79037;BME280;68434;59.896;30.474;2023-06-10T07:27:59;103013.34;;;15.65;36.44
79037;BME280;68434;59.896;30.474;2023-06-10T07:30:28;103007.13;;;15.63;36.08
79037;BME280;68434;59.896;30.474;2023-06-10T07:32:55;103007.25;;;15.61;36.33
79037;BME280;68434;59.896;30.474;2023-06-10T07:35:23;103015.84;;;15.57;36.31
79037;BME280;68434;59.896;30.474;2023-06-10T07:37:50;103011.53;;;15.54;36.55
79037;BME280;68434;59.896;30.474;2023-06-10T07:40:18;103012.66;;;15.52;36.73
79037;BME280;68434;59.896;30.474;2023-06-10T07:42:47;103018.38;;;15.49;36.81
79037;BME280;68434;59.896;30.474;2023-06-10T07:45:15;103024.69;;;15.49;36.55
79037;BME280;68434;59.896;30.474;2023-06-10T07:47:43;103025.44;;;15.51;36.79
79037;BME280;68434;59.896;30.474;2023-06-10T07:50:11;103021.69;;;15.52;36.83
79037;BME280;68434;59.896;30.474;2023-06-10T07:52:38;103029.16;;;15.50;37.03
79037;BME280;68434;59.896;30.474;2023-06-10T08:07:55;103035.41;;;15.82;38.01
79037;BME280;68434;59.896;30.474;2023-06-10T08:10:23;103036.81;;;15.97;38.49
79037;BME280;68434;59.896;30.474;2023-06-10T08:12:51;103037.56;;;15.99;37.96
79037;BME280;68434;59.896;30.474;2023-06-10T08:15:20;103035.84;;;15.98;38.74
79037;BME280;68434;59.896;30.474;2023-06-10T08:17:48;103042.88;;;16.01;38.79
79037;BME280;68434;59.896;30.474;2023-06-10T08:20:17;103038.28;;;16.01;39.50
79037;BME280;68434;59.896;30.474;2023-06-10T08:22:45;103046.50;;;16.01;39.33
79037;BME280;68434;59.896;30.474;2023-06-10T08:25:14;103049.63;;;15.97;40.07
79037;BME280;68434;59.896;30.474;2023-06-10T08:27:42;103050.72;;;15.94;39.64
79037;BME280;68434;59.896;30.474;2023-06-10T08:30:10;103048.13;;;15.93;39.39
79037;BME280;68434;59.896;30.474;2023-06-10T08:32:39;103051.00;;;15.91;40.22
79037;BME280;68434;59.896;30.474;2023-06-10T08:35:07;103054.47;;;15.93;40.76
79037;BME280;68434;59.896;30.474;2023-06-10T08:37:35;103057.94;;;15.95;40.31
79037;BME280;68434;59.896;30.474;2023-06-10T08:40:03;103063.00;;;16.00;39.83
79037;BME280;68434;59.896;30.474;2023-06-10T08:42:39;103062.25;;;15.98;39.17
79037;BME280;68434;59.896;30.474;2023-06-10T08:45:13;103060.97;;;16.02;39.31
79037;BME280;68434;59.896;30.474;2023-06-10T08:47:45;103054.97;;;16.08;40.57
79037;BME280;68434;59.896;30.474;2023-06-10T08:50:15;103054.19;;;16.17;39.18
79037;BME280;68434;59.896;30.474;2023-06-10T08:52:44;103062.50;;;16.15;39.33
79037;BME280;68434;59.896;30.474;2023-06-10T08:55:17;103061.78;;;16.13;39.07
79037;BME280;68434;59.896;30.474;2023-06-10T08:57:48;103059.06;;;16.13;38.81
79037;BME280;68434;59.896;30.474;2023-06-10T09:00:16;103058.25;;;16.22;39.68
79037;BME280;68434;59.896;30.474;2023-06-10T09:02:45;103065.44;;;16.23;39.16
79037;BME280;68434;59.896;30.474;2023-06-10T09:05:13;103067.50;;;16.31;38.73
79037;BME280;68434;59.896;30.474;2023-06-10T09:07:40;103049.09;;;16.33;38.79
79037;BME280;68434;59.896;30.474;2023-06-10T09:10:09;103062.03;;;16.31;38.31
79037;BME280;68434;59.896;30.474;2023-06-10T09:12:37;103049.50;;;16.28;38.20
79037;BME280;68434;59.896;30.474;2023-06-10T09:15:08;103059.69;;;16.26;38.28
79037;BME280;68434;59.896;30.474;2023-06-10T09:17:38;103056.09;;;16.26;38.04
79037;BME280;68434;59.896;30.474;2023-06-10T09:20:07;103068.94;;;16.35;37.54
79037;BME280;68434;59.896;30.474;2023-06-10T09:22:35;103067.69;;;16.39;37.31
79037;BME280;68434;59.896;30.474;2023-06-10T09:25:05;103075.75;;;16.40;36.81
79037;BME280;68434;59.896;30.474;2023-06-10T09:27:44;103064.22;;;16.37;36.49
79037;BME280;68434;59.896;30.474;2023-06-10T09:30:26;103064.44;;;16.45;40.30
79037;BME280;68434;59.896;30.474;2023-06-10T09:32:54;103061.63;;;16.65;41.06
79037;BME280;68434;59.896;30.474;2023-06-10T09:35:26;103068.63;;;16.88;42.65
79037;BME280;68434;59.896;30.474;2023-06-10T09:37:55;103069.81;;;17.05;43.07
79037;BME280;68434;59.896;30.474;2023-06-10T09:40:24;103069.69;;;17.16;43.63
79037;BME280;68434;59.896;30.474;2023-06-10T09:42:54;103073.59;;;17.23;44.27
79037;BME280;68434;59.896;30.474;2023-06-10T09:45:23;103062.66;;;17.33;44.44
79037;BME280;68434;59.896;30.474;2023-06-10T09:47:55;103066.16;;;17.44;44.26
79037;BME280;68434;59.896;30.474;2023-06-10T09:50:22;103065.59;;;17.50;44.61
79037;BME280;68434;59.896;30.474;2023-06-10T09:52:50;103068.72;;;17.55;44.33
79037;BME280;68434;59.896;30.474;2023-06-10T09:55:18;103059.94;;;17.61;44.46
79037;BME280;68434;59.896;30.474;2023-06-10T09:57:49;103060.38;;;17.66;44.07
79037;BME280;68434;59.896;30.474;2023-06-10T10:00:18;103059.81;;;17.72;44.26
79037;BME280;68434;59.896;30.474;2023-06-10T10:02:45;103054.63;;;17.79;43.61
79037;BME280;68434;59.896;30.474;2023-06-10T10:05:17;103058.22;;;17.79;43.39
79037;BME280;68434;59.896;30.474;2023-06-10T10:07:46;103046.13;;;17.82;43.57
79037;BME280;68434;59.896;30.474;2023-06-10T10:10:14;103050.72;;;17.91;43.31
79037;BME280;68434;59.896;30.474;2023-06-10T10:12:43;103057.19;;;17.90;43.11
79037;BME280;68434;59.896;30.474;2023-06-10T10:15:13;103054.28;;;17.91;43.31
79037;BME280;68434;59.896;30.474;2023-06-10T10:17:50;103063.09;;;17.95;42.98
79037;BME280;68434;59.896;30.474;2023-06-10T10:20:24;103057.31;;;17.98;43.22
79037;BME280;68434;59.896;30.474;2023-06-10T10:22:56;103054.97;;;18.03;42.71
79037;BME280;68434;59.896;30.474;2023-06-10T10:25:28;103054.69;;;18.06;42.56
79037;BME280;68434;59.896;30.474;2023-06-10T10:27:59;103057.13;;;18.09;42.71
79037;BME280;68434;59.896;30.474;2023-06-10T10:30:30;103057.72;;;18.12;42.61
79037;BME280;68434;59.896;30.474;2023-06-10T10:33:06;103053.94;;;18.13;42.82
79037;BME280;68434;59.896;30.474;2023-06-10T10:35:39;103053.34;;;18.19;42.81
79037;BME280;68434;59.896;30.474;2023-06-10T10:38:07;103055.81;;;18.22;42.95
79037;BME280;68434;59.896;30.474;2023-06-10T10:40:37;103055.19;;;18.28;43.21
79037;BME280;68434;59.896;30.474;2023-06-10T10:43:06;103056.66;;;18.32;43.56
79037;BME280;68434;59.896;30.474;2023-06-10T10:45:34;103057.19;;;18.36;43.46
79037;BME280;68434;59.896;30.474;2023-06-10T10:48:07;103064.16;;;18.40;43.99
79037;BME280;68434;59.896;30.474;2023-06-10T10:50:40;103060.97;;;18.44;43.89
79037;BME280;68434;59.896;30.474;2023-06-10T10:53:08;103054.16;;;18.48;43.56
79037;BME280;68434;59.896;30.474;2023-06-10T10:55:36;103059.34;;;18.51;43.66
79037;BME280;68434;59.896;30.474;2023-06-10T10:58:05;103058.16;;;18.54;43.60
79037;BME280;68434;59.896;30.474;2023-06-10T11:00:34;103058.75;;;18.57;43.77
79037;BME280;68434;59.896;30.474;2023-06-10T11:03:06;103050.38;;;18.59;43.75
79037;BME280;68434;59.896;30.474;2023-06-10T11:05:40;103052.97;;;18.60;42.85
79037;BME280;68434;59.896;30.474;2023-06-10T11:08:11;103054.53;;;18.63;43.06
79037;BME280;68434;59.896;30.474;2023-06-10T11:10:38;103049.16;;;18.71;42.45
79037;BME280;68434;59.896;30.474;2023-06-10T11:13:06;103049.72;;;18.75;42.30
79037;BME280;68434;59.896;30.474;2023-06-10T11:15:39;103059.25;;;18.70;42.58
79037;BME280;68434;59.896;30.474;2023-06-10T11:18:08;103055.81;;;18.68;42.19
79037;BME280;68434;59.896;30.474;2023-06-10T11:20:52;103058.72;;;18.67;41.88
79037;BME280;68434;59.896;30.474;2023-06-10T11:23:40;103056.66;;;18.69;41.90
79037;BME280;68434;59.896;30.474;2023-06-10T11:26:20;103056.81;;;18.67;41.81
79037;BME280;68434;59.896;30.474;2023-06-10T11:29:09;103053.91;;;18.69;41.83
79037;BME280;68434;59.896;30.474;2023-06-10T11:31:45;103051.03;;;18.70;41.76
79037;BME280;68434;59.896;30.474;2023-06-10T11:34:13;103046.56;;;18.69;41.43
79037;BME280;68434;59.896;30.474;2023-06-10T11:36:43;103056.50;;;18.70;41.50
79037;BME280;68434;59.896;30.474;2023-06-10T11:39:12;103054.47;;;18.73;42.36
79037;BME280;68434;59.896;30.474;2023-06-10T11:41:40;103060.69;;;18.75;43.43
79037;BME280;68434;59.896;30.474;2023-06-10T11:44:09;103062.25;;;18.77;45.07
79037;BME280;68434;59.896;30.474;2023-06-10T11:46:38;103066.56;;;18.80;46.36
79037;BME280;68434;59.896;30.474;2023-06-10T11:49:07;103055.28;;;18.83;47.47
79037;BME280;68434;59.896;30.474;2023-06-10T11:51:35;103053.25;;;18.85;48.48
79037;BME280;68434;59.896;30.474;2023-06-10T11:54:08;103056.72;;;18.87;50.21
79037;BME280;68434;59.896;30.474;2023-06-10T11:56:36;103054.53;;;18.90;50.11
79037;BME280;68434;59.896;30.474;2023-06-10T11:59:05;103057.09;;;18.92;51.03
79037;BME280;68434;59.896;30.474;2023-06-10T12:01:35;103051.47;;;18.93;51.41
79037;BME280;68434;59.896;30.474;2023-06-10T12:04:05;103056.66;;;18.96;51.38
79037;BME280;68434;59.896;30.474;2023-06-10T12:06:41;103056.50;;;18.98;51.96
79037;BME280;68434;59.896;30.474;2023-06-10T12:09:16;103057.22;;;19.00;52.15
79037;BME280;68434;59.896;30.474;2023-06-10T12:11:44;103066.16;;;19.02;52.15
79037;BME280;68434;59.896;30.474;2023-06-10T12:14:12;103068.44;;;19.06;53.01
79037;BME280;68434;59.896;30.474;2023-06-10T12:16:40;103065.56;;;19.08;52.89
79037;BME280;68434;59.896;30.474;2023-06-10T12:19:15;103059.91;;;19.09;52.46
79037;BME280;68434;59.896;30.474;2023-06-10T12:21:44;103064.53;;;19.09;52.11
79037;BME280;68434;59.896;30.474;2023-06-10T12:24:12;103072.59;;;19.10;51.33
79037;BME280;68434;59.896;30.474;2023-06-10T12:26:43;103074.47;;;19.10;50.91
79037;BME280;68434;59.896;30.474;2023-06-10T12:29:21;103068.00;;;19.11;50.81
79037;BME280;68434;59.896;30.474;2023-06-10T12:31:59;103066.81;;;19.13;50.19
79037;BME280;68434;59.896;30.474;2023-06-10T12:34:39;103066.81;;;19.13;50.59
79037;BME280;68434;59.896;30.474;2023-06-10T12:37:10;103058.41;;;19.15;50.55
79037;BME280;68434;59.896;30.474;2023-06-10T12:39:41;103062.88;;;19.16;49.98
79037;BME280;68434;59.896;30.474;2023-06-10T12:42:12;103060.28;;;19.14;49.64
79037;BME280;68434;59.896;30.474;2023-06-10T12:44:40;103058.25;;;19.16;49.06
79037;BME280;68434;59.896;30.474;2023-06-10T12:47:08;103053.03;;;19.23;48.08
79037;BME280;68434;59.896;30.474;2023-06-10T12:49:39;103055.38;;;19.18;47.97
79037;BME280;68434;59.896;30.474;2023-06-10T12:52:06;103055.38;;;19.18;48.34
79037;BME280;68434;59.896;30.474;2023-06-10T12:54:34;103061.72;;;19.18;48.42
79037;BME280;68434;59.896;30.474;2023-06-10T12:57:03;103059.97;;;19.17;47.69
79037;BME280;68434;59.896;30.474;2023-06-10T12:59:31;103062.81;;;19.25;47.19
79037;BME280;68434;59.896;30.474;2023-06-10T13:01:59;103059.50;;;19.22;47.21
79037;BME280;68434;59.896;30.474;2023-06-10T13:04:27;103054.19;;;19.20;47.18
79037;BME280;68434;59.896;30.474;2023-06-10T13:06:55;103051.59;;;19.19;47.17
79037;BME280;68434;59.896;30.474;2023-06-10T13:09:23;103049.72;;;19.19;47.06